sensor_id;sensor_type;location;lat;lon;timestamp;P1;durP1;ratioP1;P2;durP2;ratioP2
50858;SDS011;36826;47.514;19.056;2022-08-21T00:01:25;2.40;;;2.20;;
50858;SDS011;36826;47.514;19.056;2022-08-21T00:03:53;3.53;;;2.10;;
50858;SDS011;36826;47.514;19.056;2022-08-21T00:06:20;2.38;;;1.90;;
50858;SDS011;36826;47.514;19.056;2022-08-21T00:08:47;3.00;;;1.80;;
50858;SDS011;36826;47.514;19.056;2022-08-21T00:11:16;2.75;;;1.80;;
50858;SDS011;36826;47.514;19.056;2022-08-21T00:13:41;2.88;;;1.55;;
50858;SDS011;36826;47.514;19.056;2022-08-21T00:16:07;2.70;;;1.70;;
50858;SDS011;36826;47.514;19.056;2022-08-21T00:18:32;3.97;;;1.67;;
50858;SDS011;36826;47.514;19.056;2022-08-21T00:20:58;5.00;;;2.10;;
50858;SDS011;36826;47.514;19.056;2022-08-21T00:23:24;3.25;;;2.05;;
50858;SDS011;36826;47.514;19.056;2022-08-21T00:25:49;3.20;;;2.10;;
50858;SDS011;36826;47.514;19.056;2022-08-21T00:28:15;2.03;;;1.83;;
50858;SDS011;36826;47.514;19.056;2022-08-21T00:30:41;2.75;;;2.08;;
50858;SDS011;36826;47.514;19.056;2022-08-21T00:33:07;3.85;;;1.60;;
50858;SDS011;36826;47.514;19.056;2022-08-21T00:35:35;2.58;;;1.90;;
50858;SDS011;36826;47.514;19.056;2022-08-21T00:38:04;2.58;;;1.75;;
50858;SDS011;36826;47.514;19.056;2022-08-21T00:40:35;3.35;;;2.10;;
50858;SDS011;36826;47.514;19.056;2022-08-21T00:43:07;2.80;;;2.15;;
50858;SDS011;36826;47.514;19.056;2022-08-21T00:45:34;3.00;;;2.17;;
50858;SDS011;36826;47.514;19.056;2022-08-21T00:48:00;3.83;;;2.40;;
50858;SDS011;36826;47.514;19.056;2022-08-21T00:50:27;3.47;;;2.10;;
50858;SDS011;36826;47.514;19.056;2022-08-21T00:52:57;4.05;;;2.38;;
50858;SDS011;36826;47.514;19.056;2022-08-21T00:57:52;4.35;;;2.75;;
50858;SDS011;36826;47.514;19.056;2022-08-21T01:02:48;3.78;;;2.97;;
50858;SDS011;36826;47.514;19.056;2022-08-21T01:05:14;4.05;;;2.90;;
50858;SDS011;36826;47.514;19.056;2022-08-21T01:07:40;4.03;;;3.17;;
50858;SDS011;36826;47.514;19.056;2022-08-21T01:10:07;3.92;;;3.05;;
50858;SDS011;36826;47.514;19.056;2022-08-21T01:12:33;5.72;;;3.47;;
50858;SDS011;36826;47.514;19.056;2022-08-21T01:15:02;3.88;;;3.28;;
50858;SDS011;36826;47.514;19.056;2022-08-21T01:17:29;4.40;;;3.67;;
50858;SDS011;36826;47.514;19.056;2022-08-21T01:20:00;4.10;;;3.50;;
50858;SDS011;36826;47.514;19.056;2022-08-21T01:22:29;5.13;;;3.70;;
50858;SDS011;36826;47.514;19.056;2022-08-21T01:24:54;5.05;;;3.70;;
50858;SDS011;36826;47.514;19.056;2022-08-21T01:27:20;4.00;;;3.60;;
50858;SDS011;36826;47.514;19.056;2022-08-21T01:29:49;4.32;;;3.58;;
50858;SDS011;36826;47.514;19.056;2022-08-21T01:32:19;3.90;;;3.35;;
50858;SDS011;36826;47.514;19.056;2022-08-21T01:34:46;5.30;;;3.63;;
50858;SDS011;36826;47.514;19.056;2022-08-21T01:37:13;4.32;;;3.83;;
50858;SDS011;36826;47.514;19.056;2022-08-21T01:39:40;4.35;;;3.95;;
50858;SDS011;36826;47.514;19.056;2022-08-21T01:42:07;6.28;;;3.80;;
50858;SDS011;36826;47.514;19.056;2022-08-21T01:44:32;4.55;;;4.15;;
50858;SDS011;36826;47.514;19.056;2022-08-21T01:46:59;5.25;;;3.95;;
50858;SDS011;36826;47.514;19.056;2022-08-21T01:49:26;5.13;;;4.47;;
50858;SDS011;36826;47.514;19.056;2022-08-21T01:51:52;5.95;;;4.10;;
50858;SDS011;36826;47.514;19.056;2022-08-21T01:54:17;5.47;;;4.63;;
50858;SDS011;36826;47.514;19.056;2022-08-21T01:56:44;4.47;;;4.05;;
50858;SDS011;36826;47.514;19.056;2022-08-21T01:59:13;6.57;;;4.80;;
50858;SDS011;36826;47.514;19.056;2022-08-21T02:01:38;6.65;;;5.90;;
50858;SDS011;36826;47.514;19.056;2022-08-21T02:04:04;6.20;;;5.60;;
50858;SDS011;36826;47.514;19.056;2022-08-21T02:06:30;6.82;;;5.50;;
50858;SDS011;36826;47.514;19.056;2022-08-21T02:08:56;7.70;;;5.38;;
50858;SDS011;36826;47.514;19.056;2022-08-21T02:11:21;7.60;;;5.57;;
50858;SDS011;36826;47.514;19.056;2022-08-21T02:13:47;8.70;;;5.57;;
50858;SDS011;36826;47.514;19.056;2022-08-21T02:16:12;6.32;;;5.38;;
50858;SDS011;36826;47.514;19.056;2022-08-21T02:18:38;6.82;;;5.40;;
50858;SDS011;36826;47.514;19.056;2022-08-21T02:21:04;6.70;;;5.43;;
50858;SDS011;36826;47.514;19.056;2022-08-21T02:23:30;6.38;;;5.20;;
50858;SDS011;36826;47.514;19.056;2022-08-21T02:25:57;5.82;;;4.80;;
50858;SDS011;36826;47.514;19.056;2022-08-21T02:28:23;8.37;;;5.70;;
50858;SDS011;36826;47.514;19.056;2022-08-21T02:30:49;6.80;;;5.78;;
50858;SDS011;36826;47.514;19.056;2022-08-21T02:33:16;8.77;;;5.65;;
50858;SDS011;36826;47.514;19.056;2022-08-21T02:35:43;6.93;;;5.53;;
50858;SDS011;36826;47.514;19.056;2022-08-21T02:38:10;7.07;;;5.22;;
50858;SDS011;36826;47.514;19.056;2022-08-21T02:40:38;7.97;;;5.40;;
50858;SDS011;36826;47.514;19.056;2022-08-21T02:43:06;6.88;;;5.35;;
50858;SDS011;36826;47.514;19.056;2022-08-21T02:45:32;6.07;;;5.03;;
50858;SDS011;36826;47.514;19.056;2022-08-21T02:47:59;8.05;;;5.28;;
50858;SDS011;36826;47.514;19.056;2022-08-21T02:50:33;7.57;;;5.80;;
50858;SDS011;36826;47.514;19.056;2022-08-21T02:53:01;5.75;;;5.03;;
50858;SDS011;36826;47.514;19.056;2022-08-21T02:55:27;6.47;;;5.55;;
50858;SDS011;36826;47.514;19.056;2022-08-21T02:57:55;7.28;;;6.13;;
50858;SDS011;36826;47.514;19.056;2022-08-21T03:00:23;8.33;;;6.60;;
50858;SDS011;36826;47.514;19.056;2022-08-21T03:02:50;7.75;;;6.13;;
50858;SDS011;36826;47.514;19.056;2022-08-21T03:05:16;6.97;;;5.63;;
50858;SDS011;36826;47.514;19.056;2022-08-21T03:07:43;7.95;;;6.13;;
50858;SDS011;36826;47.514;19.056;2022-08-21T03:10:12;8.40;;;5.65;;
50858;SDS011;36826;47.514;19.056;2022-08-21T03:12:38;7.50;;;5.93;;
50858;SDS011;36826;47.514;19.056;2022-08-21T03:15:04;9.00;;;5.97;;
50858;SDS011;36826;47.514;19.056;2022-08-21T03:17:32;6.82;;;6.10;;
50858;SDS011;36826;47.514;19.056;2022-08-21T03:19:58;7.53;;;5.95;;
50858;SDS011;36826;47.514;19.056;2022-08-21T03:22:24;7.60;;;5.93;;
50858;SDS011;36826;47.514;19.056;2022-08-21T03:24:51;8.07;;;6.50;;
50858;SDS011;36826;47.514;19.056;2022-08-21T03:27:17;7.93;;;6.20;;
50858;SDS011;36826;47.514;19.056;2022-08-21T03:29:42;8.43;;;5.88;;
50858;SDS011;36826;47.514;19.056;2022-08-21T03:32:08;8.38;;;6.28;;
50858;SDS011;36826;47.514;19.056;2022-08-21T03:34:34;6.57;;;5.45;;
50858;SDS011;36826;47.514;19.056;2022-08-21T03:37:01;8.30;;;6.00;;
50858;SDS011;36826;47.514;19.056;2022-08-21T03:39:28;7.75;;;6.30;;
50858;SDS011;36826;47.514;19.056;2022-08-21T03:41:55;8.15;;;6.47;;
50858;SDS011;36826;47.514;19.056;2022-08-21T03:44:20;10.38;;;7.18;;
50858;SDS011;36826;47.514;19.056;2022-08-21T03:46:46;9.25;;;6.70;;
50858;SDS011;36826;47.514;19.056;2022-08-21T03:49:11;8.60;;;6.50;;
50858;SDS011;36826;47.514;19.056;2022-08-21T03:51:38;8.65;;;6.80;;
50858;SDS011;36826;47.514;19.056;2022-08-21T03:54:03;9.15;;;7.47;;
50858;SDS011;36826;47.514;19.056;2022-08-21T03:56:29;8.77;;;7.18;;
50858;SDS011;36826;47.514;19.056;2022-08-21T03:58:54;8.07;;;6.95;;
50858;SDS011;36826;47.514;19.056;2022-08-21T04:01:20;8.18;;;6.82;;
50858;SDS011;36826;47.514;19.056;2022-08-21T04:03:46;10.60;;;7.13;;
50858;SDS011;36826;47.514;19.056;2022-08-21T04:06:12;8.55;;;7.10;;
50858;SDS011;36826;47.514;19.056;2022-08-21T04:08:37;8.48;;;7.20;;
50858;SDS011;36826;47.514;19.056;2022-08-21T04:11:05;8.30;;;6.93;;
50858;SDS011;36826;47.514;19.056;2022-08-21T04:13:31;8.45;;;6.90;;
50858;SDS011;36826;47.514;19.056;2022-08-21T04:15:57;8.13;;;7.20;;
50858;SDS011;36826;47.514;19.056;2022-08-21T04:18:23;8.35;;;7.28;;
50858;SDS011;36826;47.514;19.056;2022-08-21T04:20:50;8.32;;;7.40;;
50858;SDS011;36826;47.514;19.056;2022-08-21T04:23:19;9.52;;;7.28;;
50858;SDS011;36826;47.514;19.056;2022-08-21T04:25:45;9.70;;;7.45;;
50858;SDS011;36826;47.514;19.056;2022-08-21T04:28:11;9.20;;;6.93;;
50858;SDS011;36826;47.514;19.056;2022-08-21T04:30:36;10.25;;;7.68;;
50858;SDS011;36826;47.514;19.056;2022-08-21T04:33:02;9.20;;;7.68;;
50858;SDS011;36826;47.514;19.056;2022-08-21T04:35:28;8.98;;;7.63;;
50858;SDS011;36826;47.514;19.056;2022-08-21T04:37:55;9.18;;;7.05;;
50858;SDS011;36826;47.514;19.056;2022-08-21T04:40:21;8.85;;;6.97;;
50858;SDS011;36826;47.514;19.056;2022-08-21T04:42:56;10.73;;;7.05;;
50858;SDS011;36826;47.514;19.056;2022-08-21T04:45:33;8.48;;;7.22;;
50858;SDS011;36826;47.514;19.056;2022-08-21T04:48:01;7.63;;;6.90;;
50858;SDS011;36826;47.514;19.056;2022-08-21T04:50:39;12.07;;;7.55;;
50858;SDS011;36826;47.514;19.056;2022-08-21T04:53:23;10.90;;;7.20;;
50858;SDS011;36826;47.514;19.056;2022-08-21T04:55:49;9.80;;;7.40;;
50858;SDS011;36826;47.514;19.056;2022-08-21T04:58:18;8.10;;;6.90;;
50858;SDS011;36826;47.514;19.056;2022-08-21T05:00:46;8.02;;;7.13;;
50858;SDS011;36826;47.514;19.056;2022-08-21T05:03:13;8.80;;;6.13;;
50858;SDS011;36826;47.514;19.056;2022-08-21T05:05:40;8.20;;;6.13;;
50858;SDS011;36826;47.514;19.056;2022-08-21T05:08:06;6.82;;;5.88;;
50858;SDS011;36826;47.514;19.056;2022-08-21T05:10:35;7.95;;;5.93;;
50858;SDS011;36826;47.514;19.056;2022-08-21T05:13:01;6.35;;;5.45;;
50858;SDS011;36826;47.514;19.056;2022-08-21T05:15:26;5.88;;;5.22;;
50858;SDS011;36826;47.514;19.056;2022-08-21T05:17:52;6.68;;;6.00;;
50858;SDS011;36826;47.514;19.056;2022-08-21T05:20:18;6.25;;;5.50;;
50858;SDS011;36826;47.514;19.056;2022-08-21T05:22:44;5.90;;;4.70;;
50858;SDS011;36826;47.514;19.056;2022-08-21T05:25:11;5.80;;;5.20;;
50858;SDS011;36826;47.514;19.056;2022-08-21T05:27:37;5.30;;;4.80;;
50858;SDS011;36826;47.514;19.056;2022-08-21T05:30:07;5.10;;;4.55;;
50858;SDS011;36826;47.514;19.056;2022-08-21T05:32:34;5.07;;;4.57;;
50858;SDS011;36826;47.514;19.056;2022-08-21T05:35:00;7.35;;;4.47;;
50858;SDS011;36826;47.514;19.056;2022-08-21T05:37:26;4.57;;;3.90;;
50858;SDS011;36826;47.514;19.056;2022-08-21T05:39:51;6.60;;;4.10;;
50858;SDS011;36826;47.514;19.056;2022-08-21T05:42:17;5.40;;;3.65;;
50858;SDS011;36826;47.514;19.056;2022-08-21T05:44:43;4.65;;;4.10;;
50858;SDS011;36826;47.514;19.056;2022-08-21T05:47:09;5.90;;;4.40;;
50858;SDS011;36826;47.514;19.056;2022-08-21T05:49:38;6.05;;;4.35;;
50858;SDS011;36826;47.514;19.056;2022-08-21T05:52:06;5.45;;;4.80;;
50858;SDS011;36826;47.514;19.056;2022-08-21T05:54:32;6.15;;;4.13;;
50858;SDS011;36826;47.514;19.056;2022-08-21T05:56:58;4.25;;;3.83;;
50858;SDS011;36826;47.514;19.056;2022-08-21T05:59:25;5.50;;;3.90;;
50858;SDS011;36826;47.514;19.056;2022-08-21T06:01:57;4.10;;;3.50;;
50858;SDS011;36826;47.514;19.056;2022-08-21T06:04:23;5.32;;;3.88;;
50858;SDS011;36826;47.514;19.056;2022-08-21T06:06:48;4.65;;;3.63;;
50858;SDS011;36826;47.514;19.056;2022-08-21T06:09:14;4.13;;;3.63;;
50858;SDS011;36826;47.514;19.056;2022-08-21T06:11:43;3.58;;;3.25;;
50858;SDS011;36826;47.514;19.056;2022-08-21T06:14:08;3.95;;;3.55;;
50858;SDS011;36826;47.514;19.056;2022-08-21T06:16:34;5.90;;;3.42;;
50858;SDS011;36826;47.514;19.056;2022-08-21T06:19:00;4.53;;;3.40;;
50858;SDS011;36826;47.514;19.056;2022-08-21T06:21:25;6.60;;;4.10;;
50858;SDS011;36826;47.514;19.056;2022-08-21T06:23:51;4.28;;;3.58;;
50858;SDS011;36826;47.514;19.056;2022-08-21T06:26:17;4.40;;;3.67;;
50858;SDS011;36826;47.514;19.056;2022-08-21T06:28:42;5.28;;;3.60;;
50858;SDS011;36826;47.514;19.056;2022-08-21T06:31:13;4.10;;;3.65;;
50858;SDS011;36826;47.514;19.056;2022-08-21T06:33:42;5.18;;;4.22;;
50858;SDS011;36826;47.514;19.056;2022-08-21T06:36:08;6.10;;;5.00;;
50858;SDS011;36826;47.514;19.056;2022-08-21T06:38:34;4.70;;;3.90;;
50858;SDS011;36826;47.514;19.056;2022-08-21T06:41:00;7.30;;;5.43;;
50858;SDS011;36826;47.514;19.056;2022-08-21T06:43:25;5.70;;;3.83;;
50858;SDS011;36826;47.514;19.056;2022-08-21T06:45:51;4.47;;;3.38;;
50858;SDS011;36826;47.514;19.056;2022-08-21T06:48:16;3.95;;;3.25;;
50858;SDS011;36826;47.514;19.056;2022-08-21T06:50:42;3.33;;;3.00;;
50858;SDS011;36826;47.514;19.056;2022-08-21T06:53:09;4.95;;;3.30;;
50858;SDS011;36826;47.514;19.056;2022-08-21T06:55:37;3.50;;;3.00;;
50858;SDS011;36826;47.514;19.056;2022-08-21T06:58:04;4.07;;;3.08;;
50858;SDS011;36826;47.514;19.056;2022-08-21T07:00:30;6.00;;;3.38;;
50858;SDS011;36826;47.514;19.056;2022-08-21T07:02:56;4.35;;;3.17;;
50858;SDS011;36826;47.514;19.056;2022-08-21T07:05:24;4.55;;;3.28;;
50858;SDS011;36826;47.514;19.056;2022-08-21T07:07:57;4.15;;;3.33;;
50858;SDS011;36826;47.514;19.056;2022-08-21T07:10:24;4.78;;;3.03;;
50858;SDS011;36826;47.514;19.056;2022-08-21T07:12:52;3.85;;;2.90;;
50858;SDS011;36826;47.514;19.056;2022-08-21T07:15:20;3.30;;;2.80;;
50858;SDS011;36826;47.514;19.056;2022-08-21T07:17:48;3.08;;;2.72;;
50858;SDS011;36826;47.514;19.056;2022-08-21T07:20:13;4.75;;;3.22;;
50858;SDS011;36826;47.514;19.056;2022-08-21T07:22:39;4.00;;;2.80;;
50858;SDS011;36826;47.514;19.056;2022-08-21T07:25:06;4.45;;;2.85;;
50858;SDS011;36826;47.514;19.056;2022-08-21T07:27:42;3.28;;;2.97;;
50858;SDS011;36826;47.514;19.056;2022-08-21T07:30:07;4.75;;;3.10;;
50858;SDS011;36826;47.514;19.056;2022-08-21T07:32:33;7.22;;;2.63;;
50858;SDS011;36826;47.514;19.056;2022-08-21T07:35:02;3.90;;;2.58;;
50858;SDS011;36826;47.514;19.056;2022-08-21T07:37:30;3.75;;;2.65;;
50858;SDS011;36826;47.514;19.056;2022-08-21T07:39:55;3.35;;;3.05;;
50858;SDS011;36826;47.514;19.056;2022-08-21T07:42:22;4.40;;;3.00;;
50858;SDS011;36826;47.514;19.056;2022-08-21T07:44:48;4.82;;;3.10;;
50858;SDS011;36826;47.514;19.056;2022-08-21T07:47:14;5.97;;;2.90;;
50858;SDS011;36826;47.514;19.056;2022-08-21T07:49:39;3.80;;;2.50;;
50858;SDS011;36826;47.514;19.056;2022-08-21T07:52:05;3.38;;;2.70;;
50858;SDS011;36826;47.514;19.056;2022-08-21T07:54:31;5.72;;;2.75;;
50858;SDS011;36826;47.514;19.056;2022-08-21T07:56:57;3.28;;;2.45;;
50858;SDS011;36826;47.514;19.056;2022-08-21T07:59:22;3.78;;;2.30;;
50858;SDS011;36826;47.514;19.056;2022-08-21T08:01:52;3.07;;;2.17;;
50858;SDS011;36826;47.514;19.056;2022-08-21T08:04:20;4.13;;;2.38;;
50858;SDS011;36826;47.514;19.056;2022-08-21T08:06:53;4.13;;;2.40;;
50858;SDS011;36826;47.514;19.056;2022-08-21T08:09:51;4.57;;;2.28;;
50858;SDS011;36826;47.514;19.056;2022-08-21T08:12:20;3.90;;;2.08;;
50858;SDS011;36826;47.514;19.056;2022-08-21T08:14:46;2.80;;;1.93;;
50858;SDS011;36826;47.514;19.056;2022-08-21T08:17:13;3.05;;;2.50;;
50858;SDS011;36826;47.514;19.056;2022-08-21T08:19:40;3.33;;;2.20;;
50858;SDS011;36826;47.514;19.056;2022-08-21T08:22:22;4.30;;;2.50;;
50858;SDS011;36826;47.514;19.056;2022-08-21T08:25:07;3.97;;;2.35;;
50858;SDS011;36826;47.514;19.056;2022-08-21T08:27:35;4.72;;;2.60;;
50858;SDS011;36826;47.514;19.056;2022-08-21T08:30:13;3.60;;;2.40;;
50858;SDS011;36826;47.514;19.056;2022-08-21T08:32:40;3.25;;;1.90;;
50858;SDS011;36826;47.514;19.056;2022-08-21T08:35:06;3.22;;;1.95;;
50858;SDS011;36826;47.514;19.056;2022-08-21T08:37:36;6.45;;;2.55;;
50858;SDS011;36826;47.514;19.056;2022-08-21T08:40:12;4.00;;;2.80;;
50858;SDS011;36826;47.514;19.056;2022-08-21T08:42:43;3.50;;;2.65;;
50858;SDS011;36826;47.514;19.056;2022-08-21T08:45:13;4.68;;;2.60;;
50858;SDS011;36826;47.514;19.056;2022-08-21T08:47:46;3.70;;;2.50;;
50858;SDS011;36826;47.514;19.056;2022-08-21T09:03:44;3.47;;;2.25;;
50858;SDS011;36826;47.514;19.056;2022-08-21T09:16:46;2.58;;;2.33;;
50858;SDS011;36826;47.514;19.056;2022-08-21T09:26:18;4.03;;;2.70;;
50858;SDS011;36826;47.514;19.056;2022-08-21T09:41:57;3.13;;;2.65;;
50858;SDS011;36826;47.514;19.056;2022-08-21T09:44:36;3.92;;;3.00;;
50858;SDS011;36826;47.514;19.056;2022-08-21T09:47:18;3.55;;;2.65;;
50858;SDS011;36826;47.514;19.056;2022-08-21T09:50:07;5.53;;;3.20;;
50858;SDS011;36826;47.514;19.056;2022-08-21T09:58:44;5.10;;;3.15;;
50858;SDS011;36826;47.514;19.056;2022-08-21T10:01:41;3.40;;;3.00;;
50858;SDS011;36826;47.514;19.056;2022-08-21T10:04:55;4.47;;;3.33;;
50858;SDS011;36826;47.514;19.056;2022-08-21T10:07:11;4.20;;;3.50;;
50858;SDS011;36826;47.514;19.056;2022-08-21T10:09:40;5.82;;;3.03;;
50858;SDS011;36826;47.514;19.056;2022-08-21T10:17:57;3.83;;;3.17;;
50858;SDS011;36826;47.514;19.056;2022-08-21T10:21:28;3.45;;;2.90;;
50858;SDS011;36826;47.514;19.056;2022-08-21T10:41:20;3.20;;;2.90;;
50858;SDS011;36826;47.514;19.056;2022-08-21T10:46:42;4.10;;;3.30;;
50858;SDS011;36826;47.514;19.056;2022-08-21T10:49:55;3.40;;;2.70;;
50858;SDS011;36826;47.514;19.056;2022-08-21T10:55:33;3.50;;;3.20;;
50858;SDS011;36826;47.514;19.056;2022-08-21T10:58:12;3.83;;;3.08;;
50858;SDS011;36826;47.514;19.056;2022-08-21T11:03:44;5.65;;;3.50;;
50858;SDS011;36826;47.514;19.056;2022-08-21T11:06:27;5.40;;;3.20;;
50858;SDS011;36826;47.514;19.056;2022-08-21T11:09:08;4.93;;;2.90;;
50858;SDS011;36826;47.514;19.056;2022-08-21T11:11:43;4.78;;;3.40;;
50858;SDS011;36826;47.514;19.056;2022-08-21T11:14:28;5.38;;;3.10;;
50858;SDS011;36826;47.514;19.056;2022-08-21T11:17:15;4.45;;;3.05;;
50858;SDS011;36826;47.514;19.056;2022-08-21T11:19:59;4.80;;;3.28;;
50858;SDS011;36826;47.514;19.056;2022-08-21T11:22:48;3.80;;;3.40;;
50858;SDS011;36826;47.514;19.056;2022-08-21T11:25:29;4.25;;;3.20;;
50858;SDS011;36826;47.514;19.056;2022-08-21T11:28:13;4.47;;;2.88;;
50858;SDS011;36826;47.514;19.056;2022-08-21T11:34:20;4.00;;;3.15;;
50858;SDS011;36826;47.514;19.056;2022-08-21T11:37:22;4.72;;;3.03;;
50858;SDS011;36826;47.514;19.056;2022-08-21T11:42:47;4.32;;;3.13;;
50858;SDS011;36826;47.514;19.056;2022-08-21T11:45:28;3.40;;;2.80;;
50858;SDS011;36826;47.514;19.056;2022-08-21T11:50:59;3.45;;;3.08;;
50858;SDS011;36826;47.514;19.056;2022-08-21T11:53:35;3.45;;;3.15;;
50858;SDS011;36826;47.514;19.056;2022-08-21T11:56:26;4.35;;;3.20;;
50858;SDS011;36826;47.514;19.056;2022-08-21T11:58:59;5.50;;;3.20;;
50858;SDS011;36826;47.514;19.056;2022-08-21T12:01:33;3.47;;;2.88;;
50858;SDS011;36826;47.514;19.056;2022-08-21T12:06:30;5.05;;;3.10;;
50858;SDS011;36826;47.514;19.056;2022-08-21T12:12:11;3.95;;;2.90;;
50858;SDS011;36826;47.514;19.056;2022-08-21T12:17:19;4.47;;;3.00;;
50858;SDS011;36826;47.514;19.056;2022-08-21T12:20:00;3.50;;;2.85;;
50858;SDS011;36826;47.514;19.056;2022-08-21T12:22:40;3.80;;;2.78;;
50858;SDS011;36826;47.514;19.056;2022-08-21T12:25:16;4.20;;;3.00;;
50858;SDS011;36826;47.514;19.056;2022-08-21T12:28:01;4.45;;;3.03;;
50858;SDS011;36826;47.514;19.056;2022-08-21T12:30:37;4.75;;;3.20;;
50858;SDS011;36826;47.514;19.056;2022-08-21T12:36:06;6.60;;;3.55;;
50858;SDS011;36826;47.514;19.056;2022-08-21T12:38:59;4.90;;;3.30;;
50858;SDS011;36826;47.514;19.056;2022-08-21T12:41:43;4.32;;;3.50;;
50858;SDS011;36826;47.514;19.056;2022-08-21T12:44:24;4.13;;;3.63;;
50858;SDS011;36826;47.514;19.056;2022-08-21T12:47:16;4.05;;;3.25;;
50858;SDS011;36826;47.514;19.056;2022-08-21T12:49:53;5.43;;;3.55;;
50858;SDS011;36826;47.514;19.056;2022-08-21T12:52:29;5.35;;;3.40;;
50858;SDS011;36826;47.514;19.056;2022-08-21T12:54:58;5.68;;;4.28;;
50858;SDS011;36826;47.514;19.056;2022-08-21T12:57:24;5.47;;;3.15;;
50858;SDS011;36826;47.514;19.056;2022-08-21T12:59:53;4.22;;;3.10;;
50858;SDS011;36826;47.514;19.056;2022-08-21T13:02:22;4.22;;;3.38;;
50858;SDS011;36826;47.514;19.056;2022-08-21T13:04:55;3.95;;;3.53;;
50858;SDS011;36826;47.514;19.056;2022-08-21T13:07:30;3.95;;;3.42;;
50858;SDS011;36826;47.514;19.056;2022-08-21T13:10:05;5.63;;;3.83;;
50858;SDS011;36826;47.514;19.056;2022-08-21T13:12:40;4.50;;;3.70;;
50858;SDS011;36826;47.514;19.056;2022-08-21T13:15:07;6.77;;;3.60;;
50858;SDS011;36826;47.514;19.056;2022-08-21T13:20:08;5.78;;;2.90;;
50858;SDS011;36826;47.514;19.056;2022-08-21T13:22:43;4.53;;;2.88;;
50858;SDS011;36826;47.514;19.056;2022-08-21T13:25:12;3.47;;;2.97;;
50858;SDS011;36826;47.514;19.056;2022-08-21T13:27:41;4.25;;;3.42;;
50858;SDS011;36826;47.514;19.056;2022-08-21T13:32:47;5.13;;;3.80;;
50858;SDS011;36826;47.514;19.056;2022-08-21T13:35:17;4.95;;;3.55;;
50858;SDS011;36826;47.514;19.056;2022-08-21T13:37:50;8.05;;;4.22;;
50858;SDS011;36826;47.514;19.056;2022-08-21T13:40:23;5.53;;;3.72;;
50858;SDS011;36826;47.514;19.056;2022-08-21T13:42:57;4.20;;;3.47;;
50858;SDS011;36826;47.514;19.056;2022-08-21T13:45:36;4.13;;;3.20;;
50858;SDS011;36826;47.514;19.056;2022-08-21T13:48:03;5.25;;;2.53;;
50858;SDS011;36826;47.514;19.056;2022-08-21T13:50:31;5.60;;;2.47;;
50858;SDS011;36826;47.514;19.056;2022-08-21T13:53:06;5.95;;;2.80;;
50858;SDS011;36826;47.514;19.056;2022-08-21T13:55:59;4.40;;;3.05;;
50858;SDS011;36826;47.514;19.056;2022-08-21T13:58:31;2.60;;;2.40;;
50858;SDS011;36826;47.514;19.056;2022-08-21T14:01:15;4.63;;;3.05;;
50858;SDS011;36826;47.514;19.056;2022-08-21T14:03:45;3.30;;;3.00;;
50858;SDS011;36826;47.514;19.056;2022-08-21T14:06:18;3.38;;;2.80;;
50858;SDS011;36826;47.514;19.056;2022-08-21T14:08:58;3.85;;;2.60;;
50858;SDS011;36826;47.514;19.056;2022-08-21T14:11:27;3.55;;;2.60;;
50858;SDS011;36826;47.514;19.056;2022-08-21T14:14:11;2.58;;;2.38;;
50858;SDS011;36826;47.514;19.056;2022-08-21T14:16:57;2.67;;;2.10;;
50858;SDS011;36826;47.514;19.056;2022-08-21T14:19:36;2.60;;;2.40;;
50858;SDS011;36826;47.514;19.056;2022-08-21T14:24:49;4.38;;;2.53;;
50858;SDS011;36826;47.514;19.056;2022-08-21T14:27:28;2.95;;;2.33;;
50858;SDS011;36826;47.514;19.056;2022-08-21T14:29:59;2.40;;;2.17;;
50858;SDS011;36826;47.514;19.056;2022-08-21T14:32:28;2.00;;;1.77;;
50858;SDS011;36826;47.514;19.056;2022-08-21T14:35:01;3.38;;;2.20;;
50858;SDS011;36826;47.514;19.056;2022-08-21T14:37:30;3.22;;;2.08;;
50858;SDS011;36826;47.514;19.056;2022-08-21T14:39:55;3.60;;;1.70;;
50858;SDS011;36826;47.514;19.056;2022-08-21T14:42:25;2.53;;;1.50;;
50858;SDS011;36826;47.514;19.056;2022-08-21T14:44:51;2.80;;;1.80;;
50858;SDS011;36826;47.514;19.056;2022-08-21T14:47:25;3.22;;;1.95;;
50858;SDS011;36826;47.514;19.056;2022-08-21T14:49:53;2.58;;;1.80;;
50858;SDS011;36826;47.514;19.056;2022-08-21T14:52:21;1.37;;;1.23;;
50858;SDS011;36826;47.514;19.056;2022-08-21T14:54:49;1.70;;;1.20;;
50858;SDS011;36826;47.514;19.056;2022-08-21T14:57:29;2.30;;;1.42;;
50858;SDS011;36826;47.514;19.056;2022-08-21T15:00:03;1.73;;;1.20;;
50858;SDS011;36826;47.514;19.056;2022-08-21T15:02:35;2.28;;;1.30;;
50858;SDS011;36826;47.514;19.056;2022-08-21T15:05:01;3.38;;;1.40;;
50858;SDS011;36826;47.514;19.056;2022-08-21T15:07:27;2.58;;;1.52;;
50858;SDS011;36826;47.514;19.056;2022-08-21T15:09:56;2.50;;;1.50;;
50858;SDS011;36826;47.514;19.056;2022-08-21T15:12:25;2.22;;;1.40;;
50858;SDS011;36826;47.514;19.056;2022-08-21T15:14:54;1.75;;;1.20;;
50858;SDS011;36826;47.514;19.056;2022-08-21T15:17:21;1.40;;;1.10;;
50858;SDS011;36826;47.514;19.056;2022-08-21T15:19:51;2.05;;;1.05;;
50858;SDS011;36826;47.514;19.056;2022-08-21T15:22:23;3.20;;;1.27;;
50858;SDS011;36826;47.514;19.056;2022-08-21T15:24:50;2.70;;;1.35;;
50858;SDS011;36826;47.514;19.056;2022-08-21T15:27:16;1.33;;;1.00;;
50858;SDS011;36826;47.514;19.056;2022-08-21T15:29:52;1.67;;;1.33;;
50858;SDS011;36826;47.514;19.056;2022-08-21T15:32:25;1.65;;;1.23;;
50858;SDS011;36826;47.514;19.056;2022-08-21T15:34:53;3.20;;;1.83;;
50858;SDS011;36826;47.514;19.056;2022-08-21T15:37:19;3.13;;;0.90;;
50858;SDS011;36826;47.514;19.056;2022-08-21T15:39:49;2.22;;;0.98;;
50858;SDS011;36826;47.514;19.056;2022-08-21T15:42:21;1.65;;;0.65;;
50858;SDS011;36826;47.514;19.056;2022-08-21T15:44:54;1.20;;;0.70;;
50858;SDS011;36826;47.514;19.056;2022-08-21T15:47:22;2.42;;;0.68;;
50858;SDS011;36826;47.514;19.056;2022-08-21T15:50:07;1.98;;;0.88;;
50858;SDS011;36826;47.514;19.056;2022-08-21T15:52:40;2.17;;;1.10;;
50858;SDS011;36826;47.514;19.056;2022-08-21T15:55:12;2.95;;;0.95;;
50858;SDS011;36826;47.514;19.056;2022-08-21T15:57:44;1.90;;;1.55;;
50858;SDS011;36826;47.514;19.056;2022-08-21T16:00:20;2.17;;;1.25;;
50858;SDS011;36826;47.514;19.056;2022-08-21T16:02:55;2.63;;;1.63;;
50858;SDS011;36826;47.514;19.056;2022-08-21T16:05:29;1.45;;;0.90;;
50858;SDS011;36826;47.514;19.056;2022-08-21T16:08:11;1.70;;;0.90;;
50858;SDS011;36826;47.514;19.056;2022-08-21T16:10:37;2.35;;;1.00;;
50858;SDS011;36826;47.514;19.056;2022-08-21T16:13:08;1.73;;;1.00;;
50858;SDS011;36826;47.514;19.056;2022-08-21T16:15:48;1.75;;;0.98;;
50858;SDS011;36826;47.514;19.056;2022-08-21T16:18:18;2.05;;;1.20;;
50858;SDS011;36826;47.514;19.056;2022-08-21T16:20:45;3.63;;;1.20;;
50858;SDS011;36826;47.514;19.056;2022-08-21T16:23:33;2.92;;;2.08;;
50858;SDS011;36826;47.514;19.056;2022-08-21T16:26:08;1.88;;;1.23;;
50858;SDS011;36826;47.514;19.056;2022-08-21T16:28:37;2.67;;;1.33;;
50858;SDS011;36826;47.514;19.056;2022-08-21T16:31:12;3.72;;;1.40;;
50858;SDS011;36826;47.514;19.056;2022-08-21T16:33:48;2.38;;;1.40;;
50858;SDS011;36826;47.514;19.056;2022-08-21T16:36:18;2.58;;;1.33;;
50858;SDS011;36826;47.514;19.056;2022-08-21T16:38:45;3.08;;;1.23;;
50858;SDS011;36826;47.514;19.056;2022-08-21T16:41:13;4.47;;;1.85;;
50858;SDS011;36826;47.514;19.056;2022-08-21T16:43:54;2.03;;;1.30;;
50858;SDS011;36826;47.514;19.056;2022-08-21T16:46:20;3.10;;;1.58;;
50858;SDS011;36826;47.514;19.056;2022-08-21T16:48:49;2.38;;;1.63;;